createdAt,value
2023-01-18T00:05:03.034Z,96012.02
2023-01-18T00:15:31.732Z,95996.79
2023-01-18T00:26:03.867Z,95999.63
2023-01-18T00:36:32.807Z,95989.94
2023-01-18T00:47:00.461Z,95975.55
2023-01-18T00:57:28.313Z,95957.48
2023-01-18T01:07:55.791Z,95953.11
2023-01-18T01:18:40.787Z,95949.84
2023-01-18T01:29:08.318Z,95931.08
2023-01-18T01:39:36.312Z,95935.15
2023-01-18T01:50:12.775Z,95931.30
2023-01-18T02:00:40.661Z,95936.34
2023-01-18T02:11:08.399Z,95937.88
2023-01-18T02:21:41.798Z,95942.50
2023-01-18T02:32:20.039Z,95925.36
2023-01-18T02:43:06.476Z,95914.02
2023-01-18T02:53:37.126Z,95907.14
2023-01-18T03:04:13.239Z,95930.79
2023-01-18T03:14:49.474Z,95936.47
2023-01-18T03:25:21.623Z,95928.49
2023-01-18T03:35:50.822Z,95921.91
2023-01-18T03:46:23.027Z,95879.95
2023-01-18T03:56:55.605Z,95794.23
2023-01-18T04:07:23.180Z,95822.96
2023-01-18T04:17:53.533Z,95851.68
2023-01-18T04:28:27.578Z,95842.80
2023-01-18T04:38:57.442Z,95823.42
2023-01-18T04:49:24.939Z,95827.05
2023-01-18T04:59:52.462Z,95830.59
2023-01-18T05:10:20.493Z,95834.80
2023-01-18T05:20:49.582Z,95829.45
2023-01-18T05:31:18.931Z,95869.41
2023-01-18T05:41:46.493Z,95874.26
2023-01-18T05:52:14.319Z,95862.83
2023-01-18T06:02:41.855Z,95843.86
2023-01-18T06:13:09.545Z,95842.55
2023-01-18T06:23:37.136Z,95858.17
2023-01-18T06:34:09.530Z,95874.05
2023-01-18T06:44:37.062Z,95864.14
2023-01-18T06:55:04.741Z,95858.59
2023-01-18T07:05:32.488Z,95876.30
2023-01-18T07:16:02.133Z,95882.32
2023-01-18T07:26:29.742Z,95891.24
2023-01-18T07:36:57.253Z,95902.96
2023-01-18T07:47:24.868Z,95887.61
2023-01-18T07:57:52.468Z,95894.60
2023-01-18T08:08:21.080Z,95913.09
2023-01-18T08:18:51.755Z,95906.11
2023-01-18T08:29:19.295Z,95889.05
2023-01-18T08:39:46.848Z,95929.96
2023-01-18T08:50:14.977Z,95934.52
2023-01-18T09:00:42.568Z,95948.67
2023-01-18T09:11:12.036Z,95971.54
2023-01-18T09:21:40.316Z,95968.69
2023-01-18T09:32:09.575Z,95987.63
2023-01-18T09:42:44.826Z,95984.99
2023-01-18T09:53:24.322Z,95993.71
2023-01-18T10:03:55.988Z,96024.73
2023-01-18T10:14:35.892Z,96056.86
2023-01-18T10:25:08.388Z,96076.17
2023-01-18T10:35:41.158Z,96087.73
2023-01-18T10:46:16.796Z,96102.80
2023-01-18T10:56:45.287Z,96120.29
2023-01-18T11:07:13.800Z,96125.89
2023-01-18T11:17:42.198Z,96138.94
2023-01-18T11:28:21.865Z,96147.44
2023-01-18T11:38:49.909Z,96144.48
2023-01-18T11:49:29.178Z,96158.09
2023-01-18T11:59:57.197Z,96185.21
2023-01-18T12:10:26.464Z,96217.09
2023-01-18T12:21:03.402Z,96237.91
2023-01-18T12:31:51.362Z,96260.69
2023-01-18T12:42:30.031Z,96286.28
2023-01-18T12:53:02.726Z,96309.01
2023-01-18T13:03:36.693Z,96333.59
2023-01-18T13:14:09.649Z,96362.30
2023-01-18T13:24:52.735Z,96378.67
2023-01-18T13:35:25.860Z,96393.91
2023-01-18T13:46:16.266Z,96422.20
2023-01-18T13:57:04.256Z,96430.77
2023-01-18T14:07:45.657Z,96459.50
2023-01-18T14:18:22.720Z,96492.80
2023-01-18T14:28:55.163Z,96514.07
2023-01-18T14:39:22.956Z,96529.89
2023-01-18T14:49:51.009Z,96550.30
2023-01-18T15:00:21.411Z,96570.14
2023-01-18T15:10:50.118Z,96590.56
2023-01-18T15:21:22.515Z,96618.88
2023-01-18T15:31:53.234Z,96630.33
2023-01-18T15:42:21.181Z,96651.54
2023-01-18T15:52:54.004Z,96663.73
2023-01-18T16:03:23.619Z,96675.56
2023-01-18T16:13:59.623Z,96679.65
2023-01-18T16:24:34.071Z,96701.41
2023-01-18T16:35:04.345Z,96736.15
2023-01-18T16:45:34.981Z,96762.37
2023-01-18T16:56:02.600Z,96789.16
2023-01-18T17:06:30.104Z,96822.29
2023-01-18T17:16:58.134Z,96829.85
2023-01-18T17:27:25.667Z,96848.91
2023-01-18T17:38:00.961Z,96850.27
2023-01-18T17:48:34.116Z,96869.80
2023-01-18T17:59:01.975Z,96884.72
2023-01-18T18:09:29.700Z,96902.91
2023-01-18T18:19:57.461Z,96908.39
2023-01-18T18:30:25.265Z,96913.36
2023-01-18T18:40:53.463Z,96932.77
2023-01-18T18:51:21.134Z,96950.16
2023-01-18T19:01:51.778Z,96957.64
2023-01-18T19:12:19.554Z,96983.09
2023-01-18T19:22:47.439Z,96999.44
2023-01-18T19:33:17.337Z,96996.05
2023-01-18T19:43:45.145Z,97000.11
2023-01-18T19:54:12.688Z,97016.84
2023-01-18T20:04:40.291Z,97024.02
2023-01-18T20:15:09.297Z,97034.46
2023-01-18T20:25:36.831Z,97060.60
2023-01-18T20:36:04.895Z,97088.83
2023-01-18T20:46:32.535Z,97076.02
2023-01-18T20:57:00.177Z,97073.64
2023-01-18T21:07:29.790Z,97078.42
2023-01-18T21:17:57.936Z,97074.79
2023-01-18T21:28:26.864Z,97075.86
2023-01-18T21:38:54.531Z,97094.04
2023-01-18T21:50:04.044Z,97117.95
2023-01-18T22:00:27.276Z,97157.23
2023-01-18T22:10:54.977Z,97195.79
2023-01-18T22:21:25.394Z,97195.27
2023-01-18T22:31:53.270Z,97204.59
2023-01-18T22:42:20.863Z,97219.90
2023-01-18T22:52:48.307Z,97240.82
2023-01-18T23:03:17.369Z,97236.49
2023-01-18T23:14:09.193Z,97238.20
2023-01-18T23:24:37.672Z,97239.92
2023-01-18T23:35:03.870Z,97250.44
2023-01-18T23:45:48.829Z,97252.21
2023-01-18T23:56:16.441Z,97254.77
